Unalakleet, Alaska
Current Conditions -  °F | °C
As of 11:36 AM on Thursday 20 Nov 2014 (Local Time) from PAUN Reporting Station
Clear Clear  
Wind Chill: 20°   Ceiling: Unl
Heat Index: 32°   Visibility: 10mi
Dew Point: 21°   Wind: 21mph
Humidity: 64%   Direction: 80°E
Pressure: 29.33"   Gusts: NA
Location:  63.88°N, 160.79°W
Report Text: PAUN 202036Z AUTO 08018KT 10SM CLR 00/M06 A2933 RMK AO1
Loading
Personal Weather Stations






























Interactive Weather Map New forecast layout! Learn more

10-Day Weather Forecast

Advertisements
Track Severe Weather on mobile